This is the latest recevied weather packets stored in our database for station/object OE5RBO. If no packets are shown the sender has not sent any weather packets the latest 10 day(s).
| Time | Temp. | Humidity | Pressure | Rain* | Wind** | Luminosity | Snow |
|---|---|---|---|---|---|---|---|
| 1788093086 | 27.78° C | 53% | 1016.7 hPa | 0 mm | - | - | - |
| 1788092486 | 27.78° C | 55% | 1016.8 hPa | 0 mm | - | - | - |
| 1788090685 | 27.22° C | 57% | 1017 hPa | 0 mm | - | - | - |
| 1788090084 | 26.67° C | 55% | 1017.2 hPa | 0 mm | - | - | - |
| 1788089484 | 27.22° C | 56% | 1017.3 hPa | 0 mm | - | - | - |
| 1788088884 | 28.33° C | 53% | 1017.4 hPa | 0 mm | - | - | - |
| 1788088283 | 28.33° C | 53% | 1017.4 hPa | 0 mm | - | - | - |
| 1788087683 | 27.78° C | 55% | 1017.6 hPa | 0 mm | - | - | - |
| 1788087083 | 26.67° C | 56% | 1017.6 hPa | 0 mm | - | - | - |
| 1788085882 | 26.11° C | 58% | 1018 hPa | 0 mm | - | - | - |
| 1788085282 | 26.11° C | 61% | 1017.9 hPa | 0 mm | - | - | - |
| 1788084681 | 25.56° C | 61% | 1018.1 hPa | 0 mm | - | - | - |
| 1788084081 | 26.67° C | 58% | 1018 hPa | 0 mm | - | - | - |
| 1788083480 | 26.11° C | 60% | 1018.1 hPa | 0 mm | - | - | - |
| 1788082880 | 25.56° C | 62% | 1018.2 hPa | 0 mm | - | - | - |
| 1788082280 | 27.78° C | 56% | 1018.3 hPa | 0 mm | - | - | - |
| 1788081679 | 27.78° C | 58% | 1018.3 hPa | 0 mm | - | - | - |
| 1788081079 | 27.78° C | 58% | 1018.3 hPa | 0 mm | - | - | - |
| 1788079278 | 26.67° C | 61% | 1018.4 hPa | 0 mm | - | - | - |
| 1788078677 | 26.67° C | 62% | 1018.5 hPa | 0 mm | - | - | - |
| 1788078077 | 26.11° C | 67% | 1018.6 hPa | 0 mm | - | - | - |
| 1788077477 | 25° C | 69% | 1018.6 hPa | 0 mm | - | - | - |
| 1788076876 | 25° C | 70% | 1018.6 hPa | 0 mm | - | - | - |
| 1788076276 | 24.44° C | 72% | 1018.6 hPa | 0 mm | - | - | - |
| 1788075676 | 22.78° C | 77% | 1018.6 hPa | 0 mm | - | - | - |
* Rain since midnight (hover to see other rain measurements)
** Current wind speed in m/s (hover to see current wind gust speed)